sensor_id;sensor_type;location;lat;lon;timestamp;temperature;humidity
18662;DHT22;61528;49.456;11.098;2022-07-09T00:02:03;19.60;88.50
18662;DHT22;61528;49.456;11.098;2022-07-09T00:04:29;19.50;90.00
18662;DHT22;61528;49.456;11.098;2022-07-09T00:06:55;19.50;90.50
18662;DHT22;61528;49.456;11.098;2022-07-09T00:09:21;19.50;90.40
18662;DHT22;61528;49.456;11.098;2022-07-09T00:11:46;19.50;90.40
18662;DHT22;61528;49.456;11.098;2022-07-09T00:14:12;19.60;90.80
18662;DHT22;61528;49.456;11.098;2022-07-09T00:16:38;19.60;91.10
18662;DHT22;61528;49.456;11.098;2022-07-09T00:19:04;19.70;91.20
18662;DHT22;61528;49.456;11.098;2022-07-09T00:21:30;19.50;91.40
18662;DHT22;61528;49.456;11.098;2022-07-09T00:23:55;19.50;91.70
18662;DHT22;61528;49.456;11.098;2022-07-09T00:26:21;19.40;92.10
18662;DHT22;61528;49.456;11.098;2022-07-09T00:28:47;19.40;91.90
18662;DHT22;61528;49.456;11.098;2022-07-09T00:31:13;19.30;91.80
18662;DHT22;61528;49.456;11.098;2022-07-09T00:33:38;19.30;91.80
18662;DHT22;61528;49.456;11.098;2022-07-09T00:36:04;19.20;92.00
18662;DHT22;61528;49.456;11.098;2022-07-09T00:38:30;19.20;92.10
18662;DHT22;61528;49.456;11.098;2022-07-09T00:40:56;19.10;91.90
18662;DHT22;61528;49.456;11.098;2022-07-09T00:43:23;19.10;91.70
18662;DHT22;61528;49.456;11.098;2022-07-09T00:45:49;18.90;92.10
18662;DHT22;61528;49.456;11.098;2022-07-09T00:48:16;18.90;92.10
18662;DHT22;61528;49.456;11.098;2022-07-09T00:50:43;18.90;91.90
18662;DHT22;61528;49.456;11.098;2022-07-09T00:53:18;18.90;92.10
18662;DHT22;61528;49.456;11.098;2022-07-09T00:55:47;18.90;91.90
18662;DHT22;61528;49.456;11.098;2022-07-09T00:58:15;18.90;92.10
18662;DHT22;61528;49.456;11.098;2022-07-09T01:00:43;18.90;92.30
18662;DHT22;61528;49.456;11.098;2022-07-09T01:03:09;18.90;92.80
18662;DHT22;61528;49.456;11.098;2022-07-09T01:05:35;18.90;93.30
18662;DHT22;61528;49.456;11.098;2022-07-09T01:08:05;18.90;93.50
18662;DHT22;61528;49.456;11.098;2022-07-09T01:10:33;18.80;93.80
18662;DHT22;61528;49.456;11.098;2022-07-09T01:12:59;18.60;94.10
18662;DHT22;61528;49.456;11.098;2022-07-09T01:15:25;18.60;94.30
18662;DHT22;61528;49.456;11.098;2022-07-09T01:17:50;18.60;94.50
18662;DHT22;61528;49.456;11.098;2022-07-09T01:22:50;18.50;95.10
18662;DHT22;61528;49.456;11.098;2022-07-09T01:25:19;18.40;95.50
18662;DHT22;61528;49.456;11.098;2022-07-09T01:27:50;18.30;95.90
18662;DHT22;61528;49.456;11.098;2022-07-09T01:30:26;18.20;96.50
18662;DHT22;61528;49.456;11.098;2022-07-09T01:32:53;18.10;96.60
18662;DHT22;61528;49.456;11.098;2022-07-09T01:35:20;18.10;97.10
18662;DHT22;61528;49.456;11.098;2022-07-09T01:37:47;18.00;97.50
18662;DHT22;61528;49.456;11.098;2022-07-09T01:40:13;18.00;97.50
18662;DHT22;61528;49.456;11.098;2022-07-09T01:42:39;17.80;97.90
18662;DHT22;61528;49.456;11.098;2022-07-09T04:26:14;15.50;99.90
18662;DHT22;61528;49.456;11.098;2022-07-09T04:28:40;15.50;99.90
18662;DHT22;61528;49.456;11.098;2022-07-09T04:31:06;15.50;99.90
18662;DHT22;61528;49.456;11.098;2022-07-09T04:33:31;15.60;99.90
18662;DHT22;61528;49.456;11.098;2022-07-09T04:35:57;15.50;99.90
18662;DHT22;61528;49.456;11.098;2022-07-09T04:38:23;15.50;99.90
18662;DHT22;61528;49.456;11.098;2022-07-09T04:40:50;15.60;99.90
18662;DHT22;61528;49.456;11.098;2022-07-09T04:43:16;15.60;99.90
18662;DHT22;61528;49.456;11.098;2022-07-09T04:45:42;15.60;99.90
18662;DHT22;61528;49.456;11.098;2022-07-09T04:48:08;15.60;99.90
18662;DHT22;61528;49.456;11.098;2022-07-09T04:50:34;15.60;99.90
18662;DHT22;61528;49.456;11.098;2022-07-09T04:52:59;15.70;99.90
18662;DHT22;61528;49.456;11.098;2022-07-09T04:55:25;15.70;99.90
18662;DHT22;61528;49.456;11.098;2022-07-09T04:57:51;15.60;99.90
18662;DHT22;61528;49.456;11.098;2022-07-09T05:00:17;15.60;99.90
18662;DHT22;61528;49.456;11.098;2022-07-09T05:02:43;15.70;99.90
18662;DHT22;61528;49.456;11.098;2022-07-09T05:05:10;15.70;99.90
18662;DHT22;61528;49.456;11.098;2022-07-09T05:07:36;15.70;99.90
18662;DHT22;61528;49.456;11.098;2022-07-09T05:10:03;15.70;99.90
18662;DHT22;61528;49.456;11.098;2022-07-09T05:12:29;15.70;99.90
18662;DHT22;61528;49.456;11.098;2022-07-09T05:14:55;15.70;99.90
18662;DHT22;61528;49.456;11.098;2022-07-09T05:17:22;15.70;99.90
18662;DHT22;61528;49.456;11.098;2022-07-09T05:19:48;15.70;99.90
18662;DHT22;61528;49.456;11.098;2022-07-09T05:22:14;15.80;99.90
18662;DHT22;61528;49.456;11.098;2022-07-09T05:24:40;15.70;99.90
18662;DHT22;61528;49.456;11.098;2022-07-09T05:27:06;15.70;99.90
18662;DHT22;61528;49.456;11.098;2022-07-09T05:29:34;15.80;99.90
18662;DHT22;61528;49.456;11.098;2022-07-09T05:31:59;15.80;99.90
18662;DHT22;61528;49.456;11.098;2022-07-09T05:34:25;15.80;99.90
18662;DHT22;61528;49.456;11.098;2022-07-09T05:36:51;15.90;99.90
18662;DHT22;61528;49.456;11.098;2022-07-09T05:39:17;15.90;99.90
18662;DHT22;61528;49.456;11.098;2022-07-09T05:41:43;15.90;99.90
18662;DHT22;61528;49.456;11.098;2022-07-09T05:44:09;15.90;99.90
18662;DHT22;61528;49.456;11.098;2022-07-09T05:46:36;15.90;99.90
18662;DHT22;61528;49.456;11.098;2022-07-09T05:49:02;16.00;99.90
18662;DHT22;61528;49.456;11.098;2022-07-09T05:51:28;16.00;99.90
18662;DHT22;61528;49.456;11.098;2022-07-09T05:53:54;16.00;99.90
18662;DHT22;61528;49.456;11.098;2022-07-09T05:56:21;16.00;99.90
18662;DHT22;61528;49.456;11.098;2022-07-09T05:58:47;16.00;99.90
18662;DHT22;61528;49.456;11.098;2022-07-09T06:01:13;16.00;99.90
18662;DHT22;61528;49.456;11.098;2022-07-09T06:03:40;16.10;99.90
18662;DHT22;61528;49.456;11.098;2022-07-09T06:06:06;16.10;99.90
18662;DHT22;61528;49.456;11.098;2022-07-09T06:08:32;16.20;99.90
18662;DHT22;61528;49.456;11.098;2022-07-09T06:10:59;16.20;99.90
18662;DHT22;61528;49.456;11.098;2022-07-09T06:13:27;16.30;99.90
18662;DHT22;61528;49.456;11.098;2022-07-09T06:15:53;16.40;99.90
18662;DHT22;61528;49.456;11.098;2022-07-09T06:18:20;16.40;99.90
18662;DHT22;61528;49.456;11.098;2022-07-09T06:20:47;16.40;99.90
18662;DHT22;61528;49.456;11.098;2022-07-09T06:23:13;16.50;99.90
18662;DHT22;61528;49.456;11.098;2022-07-09T06:25:39;16.50;99.90
18662;DHT22;61528;49.456;11.098;2022-07-09T06:28:05;16.60;99.90
18662;DHT22;61528;49.456;11.098;2022-07-09T06:30:32;16.60;99.90
18662;DHT22;61528;49.456;11.098;2022-07-09T06:32:59;16.70;99.90
18662;DHT22;61528;49.456;11.098;2022-07-09T06:35:25;16.70;99.90
18662;DHT22;61528;49.456;11.098;2022-07-09T06:37:51;16.80;99.90
18662;DHT22;61528;49.456;11.098;2022-07-09T06:40:17;16.90;99.90
18662;DHT22;61528;49.456;11.098;2022-07-09T06:42:43;16.90;99.90
18662;DHT22;61528;49.456;11.098;2022-07-09T06:45:10;17.00;99.90
18662;DHT22;61528;49.456;11.098;2022-07-09T06:47:36;17.00;99.90
18662;DHT22;61528;49.456;11.098;2022-07-09T06:50:02;17.10;99.90
18662;DHT22;61528;49.456;11.098;2022-07-09T06:52:28;17.20;99.90
18662;DHT22;61528;49.456;11.098;2022-07-09T06:54:54;17.20;99.90
18662;DHT22;61528;49.456;11.098;2022-07-09T06:57:19;17.30;99.90
18662;DHT22;61528;49.456;11.098;2022-07-09T06:59:45;17.30;99.90
18662;DHT22;61528;49.456;11.098;2022-07-09T07:02:12;17.40;99.90
18662;DHT22;61528;49.456;11.098;2022-07-09T07:04:37;17.40;99.90
18662;DHT22;61528;49.456;11.098;2022-07-09T07:07:03;17.50;99.90
18662;DHT22;61528;49.456;11.098;2022-07-09T07:09:30;17.60;99.90
18662;DHT22;61528;49.456;11.098;2022-07-09T07:11:57;17.60;99.90
18662;DHT22;61528;49.456;11.098;2022-07-09T07:14:23;17.80;99.90
18662;DHT22;61528;49.456;11.098;2022-07-09T07:16:49;17.80;99.90
18662;DHT22;61528;49.456;11.098;2022-07-09T07:19:15;17.80;99.90
18662;DHT22;61528;49.456;11.098;2022-07-09T07:21:40;17.90;99.90
18662;DHT22;61528;49.456;11.098;2022-07-09T07:24:07;18.00;99.90
18662;DHT22;61528;49.456;11.098;2022-07-09T07:26:34;18.10;99.90
18662;DHT22;61528;49.456;11.098;2022-07-09T07:29:00;18.20;99.90
18662;DHT22;61528;49.456;11.098;2022-07-09T07:31:26;18.20;99.90
18662;DHT22;61528;49.456;11.098;2022-07-09T07:33:52;18.30;99.90
18662;DHT22;61528;49.456;11.098;2022-07-09T07:36:18;18.30;99.90
18662;DHT22;61528;49.456;11.098;2022-07-09T07:38:43;18.30;99.90
18662;DHT22;61528;49.456;11.098;2022-07-09T07:41:12;18.40;99.90
18662;DHT22;61528;49.456;11.098;2022-07-09T07:46:09;18.60;99.90
18662;DHT22;61528;49.456;11.098;2022-07-09T07:48:35;18.70;99.90
18662;DHT22;61528;49.456;11.098;2022-07-09T07:51:02;18.70;99.90
18662;DHT22;61528;49.456;11.098;2022-07-09T07:53:30;18.80;99.90
18662;DHT22;61528;49.456;11.098;2022-07-09T07:55:57;19.00;99.90
18662;DHT22;61528;49.456;11.098;2022-07-09T07:58:23;19.10;99.90
18662;DHT22;61528;49.456;11.098;2022-07-09T08:00:49;19.20;99.90
18662;DHT22;61528;49.456;11.098;2022-07-09T08:03:14;19.30;99.90
18662;DHT22;61528;49.456;11.098;2022-07-09T08:05:40;19.40;99.90
18662;DHT22;61528;49.456;11.098;2022-07-09T08:08:06;19.60;99.90
18662;DHT22;61528;49.456;11.098;2022-07-09T08:10:31;19.70;99.90
18662;DHT22;61528;49.456;11.098;2022-07-09T08:12:57;19.80;99.90
18662;DHT22;61528;49.456;11.098;2022-07-09T08:15:23;19.90;99.90
18662;DHT22;61528;49.456;11.098;2022-07-09T08:17:49;20.00;99.90
18662;DHT22;61528;49.456;11.098;2022-07-09T08:20:15;20.10;99.90
18662;DHT22;61528;49.456;11.098;2022-07-09T08:22:40;20.20;99.90
18662;DHT22;61528;49.456;11.098;2022-07-09T08:25:06;20.30;99.90
18662;DHT22;61528;49.456;11.098;2022-07-09T08:27:32;20.30;99.90
18662;DHT22;61528;49.456;11.098;2022-07-09T08:29:58;20.40;99.90
18662;DHT22;61528;49.456;11.098;2022-07-09T08:32:24;20.50;99.90
18662;DHT22;61528;49.456;11.098;2022-07-09T08:34:50;20.50;99.90
18662;DHT22;61528;49.456;11.098;2022-07-09T08:37:15;20.50;99.90
18662;DHT22;61528;49.456;11.098;2022-07-09T08:39:41;20.70;99.90
18662;DHT22;61528;49.456;11.098;2022-07-09T08:42:09;20.70;99.90
18662;DHT22;61528;49.456;11.098;2022-07-09T08:44:39;20.80;99.90
18662;DHT22;61528;49.456;11.098;2022-07-09T08:47:07;20.80;99.90
18662;DHT22;61528;49.456;11.098;2022-07-09T08:49:34;21.00;99.90
18662;DHT22;61528;49.456;11.098;2022-07-09T08:52:02;21.00;99.90
18662;DHT22;61528;49.456;11.098;2022-07-09T08:54:28;21.00;99.90
18662;DHT22;61528;49.456;11.098;2022-07-09T08:56:55;21.10;99.90
18662;DHT22;61528;49.456;11.098;2022-07-09T08:59:21;21.20;99.90
18662;DHT22;61528;49.456;11.098;2022-07-09T09:01:47;21.30;99.90
18662;DHT22;61528;49.456;11.098;2022-07-09T09:04:13;21.30;99.90
18662;DHT22;61528;49.456;11.098;2022-07-09T09:06:39;21.30;99.90
18662;DHT22;61528;49.456;11.098;2022-07-09T09:09:08;21.40;99.90
18662;DHT22;61528;49.456;11.098;2022-07-09T09:11:34;21.40;99.90
18662;DHT22;61528;49.456;11.098;2022-07-09T09:14:03;21.50;99.90
18662;DHT22;61528;49.456;11.098;2022-07-09T09:16:29;21.60;99.10
18662;DHT22;61528;49.456;11.098;2022-07-09T09:18:56;21.60;98.40
18662;DHT22;61528;49.456;11.098;2022-07-09T09:21:24;21.70;98.50
18662;DHT22;61528;49.456;11.098;2022-07-09T09:23:53;21.70;98.10
18662;DHT22;61528;49.456;11.098;2022-07-09T09:26:23;21.80;98.10
18662;DHT22;61528;49.456;11.098;2022-07-09T09:29:00;21.80;97.80
18662;DHT22;61528;49.456;11.098;2022-07-09T09:31:36;21.80;97.90
18662;DHT22;61528;49.456;11.098;2022-07-09T09:36:36;21.70;98.30
18662;DHT22;61528;49.456;11.098;2022-07-09T09:39:17;21.60;98.50
18662;DHT22;61528;49.456;11.098;2022-07-09T09:41:49;21.50;98.30
18662;DHT22;61528;49.456;11.098;2022-07-09T09:44:20;21.60;98.20
18662;DHT22;61528;49.456;11.098;2022-07-09T09:46:46;21.60;98.20
18662;DHT22;61528;49.456;11.098;2022-07-09T09:49:14;21.60;98.00
18662;DHT22;61528;49.456;11.098;2022-07-09T09:52:09;21.50;98.10
18662;DHT22;61528;49.456;11.098;2022-07-09T09:54:39;21.50;98.20
18662;DHT22;61528;49.456;11.098;2022-07-09T09:57:10;21.40;98.20
18662;DHT22;61528;49.456;11.098;2022-07-09T09:59:37;21.40;98.30
18662;DHT22;61528;49.456;11.098;2022-07-09T10:02:05;21.40;98.40
18662;DHT22;61528;49.456;11.098;2022-07-09T10:04:42;21.50;98.60
18662;DHT22;61528;49.456;11.098;2022-07-09T10:07:11;21.50;98.70
18662;DHT22;61528;49.456;11.098;2022-07-09T10:09:37;21.50;98.70
18662;DHT22;61528;49.456;11.098;2022-07-09T10:12:04;21.60;98.50
18662;DHT22;61528;49.456;11.098;2022-07-09T10:14:32;21.50;98.00
18662;DHT22;61528;49.456;11.098;2022-07-09T10:17:19;21.60;97.90
18662;DHT22;61528;49.456;11.098;2022-07-09T10:19:57;21.70;97.90
18662;DHT22;61528;49.456;11.098;2022-07-09T10:22:37;21.80;97.60
18662;DHT22;61528;49.456;11.098;2022-07-09T10:25:04;21.80;97.00
18662;DHT22;61528;49.456;11.098;2022-07-09T10:27:41;21.90;96.90
18662;DHT22;61528;49.456;11.098;2022-07-09T10:33:07;22.10;96.30
18662;DHT22;61528;49.456;11.098;2022-07-09T10:35:44;22.10;96.00
18662;DHT22;61528;49.456;11.098;2022-07-09T10:43:10;22.70;94.20
18662;DHT22;61528;49.456;11.098;2022-07-09T10:45:40;22.70;94.40
18662;DHT22;61528;49.456;11.098;2022-07-09T10:48:08;22.70;94.30
18662;DHT22;61528;49.456;11.098;2022-07-09T10:50:44;22.80;94.70
18662;DHT22;61528;49.456;11.098;2022-07-09T10:53:13;22.70;94.00
18662;DHT22;61528;49.456;11.098;2022-07-09T10:55:43;22.50;94.10
18662;DHT22;61528;49.456;11.098;2022-07-09T10:58:20;22.50;94.30
18662;DHT22;61528;49.456;11.098;2022-07-09T11:00:56;22.50;94.40
18662;DHT22;61528;49.456;11.098;2022-07-09T11:03:26;22.50;94.20
18662;DHT22;61528;49.456;11.098;2022-07-09T11:05:52;22.50;94.30
18662;DHT22;61528;49.456;11.098;2022-07-09T11:08:18;22.40;94.50
18662;DHT22;61528;49.456;11.098;2022-07-09T11:10:43;22.30;94.70
18662;DHT22;61528;49.456;11.098;2022-07-09T11:13:09;22.10;95.00
18662;DHT22;61528;49.456;11.098;2022-07-09T11:15:37;22.10;95.10
18662;DHT22;61528;49.456;11.098;2022-07-09T11:18:13;22.10;94.50
18662;DHT22;61528;49.456;11.098;2022-07-09T11:20:46;22.10;94.50
18662;DHT22;61528;49.456;11.098;2022-07-09T11:23:13;22.10;94.80
18662;DHT22;61528;49.456;11.098;2022-07-09T11:25:39;22.00;94.90
18662;DHT22;61528;49.456;11.098;2022-07-09T11:28:05;22.00;95.00
18662;DHT22;61528;49.456;11.098;2022-07-09T11:30:31;22.00;95.10
18662;DHT22;61528;49.456;11.098;2022-07-09T11:32:58;22.10;95.10
18662;DHT22;61528;49.456;11.098;2022-07-09T11:35:32;22.00;95.20
18662;DHT22;61528;49.456;11.098;2022-07-09T11:38:04;22.00;95.30
18662;DHT22;61528;49.456;11.098;2022-07-09T11:40:30;22.00;95.20
18662;DHT22;61528;49.456;11.098;2022-07-09T11:42:56;22.00;95.30
18662;DHT22;61528;49.456;11.098;2022-07-09T11:45:25;22.00;95.20
18662;DHT22;61528;49.456;11.098;2022-07-09T11:48:06;22.00;95.30
18662;DHT22;61528;49.456;11.098;2022-07-09T11:50:33;22.00;95.50
18662;DHT22;61528;49.456;11.098;2022-07-09T11:53:00;21.90;95.50
18662;DHT22;61528;49.456;11.098;2022-07-09T11:55:30;22.00;96.00
18662;DHT22;61528;49.456;11.098;2022-07-09T11:57:58;22.10;95.40
18662;DHT22;61528;49.456;11.098;2022-07-09T12:00:26;22.00;95.10
18662;DHT22;61528;49.456;11.098;2022-07-09T12:02:54;22.10;95.00
18662;DHT22;61528;49.456;11.098;2022-07-09T12:05:35;22.10;95.20
18662;DHT22;61528;49.456;11.098;2022-07-09T12:08:08;22.20;95.10
18662;DHT22;61528;49.456;11.098;2022-07-09T12:10:38;22.20;94.80
18662;DHT22;61528;49.456;11.098;2022-07-09T12:13:05;22.20;94.90
18662;DHT22;61528;49.456;11.098;2022-07-09T12:15:31;22.30;94.80
18662;DHT22;61528;49.456;11.098;2022-07-09T12:18:00;22.30;94.90
18662;DHT22;61528;49.456;11.098;2022-07-09T12:20:30;22.20;94.10
18662;DHT22;61528;49.456;11.098;2022-07-09T12:22:57;22.10;94.10
18662;DHT22;61528;49.456;11.098;2022-07-09T12:25:23;21.90;94.10
18662;DHT22;61528;49.456;11.098;2022-07-09T12:27:49;21.90;94.20
18662;DHT22;61528;49.456;11.098;2022-07-09T12:30:15;22.00;94.00
18662;DHT22;61528;49.456;11.098;2022-07-09T12:32:41;22.00;93.80
18662;DHT22;61528;49.456;11.098;2022-07-09T12:35:08;22.10;93.70
18662;DHT22;61528;49.456;11.098;2022-07-09T12:37:35;22.10;93.80
18662;DHT22;61528;49.456;11.098;2022-07-09T12:40:02;22.10;94.00
18662;DHT22;61528;49.456;11.098;2022-07-09T12:42:28;22.30;93.80
18662;DHT22;61528;49.456;11.098;2022-07-09T12:44:54;22.30;93.90
18662;DHT22;61528;49.456;11.098;2022-07-09T12:47:20;22.40;94.00
18662;DHT22;61528;49.456;11.098;2022-07-09T12:49:46;22.50;94.10
18662;DHT22;61528;49.456;11.098;2022-07-09T12:52:12;22.60;93.60
18662;DHT22;61528;49.456;11.098;2022-07-09T12:54:38;22.70;93.70
18662;DHT22;61528;49.456;11.098;2022-07-09T12:57:04;22.80;93.40
18662;DHT22;61528;49.456;11.098;2022-07-09T12:59:30;22.80;93.40
18662;DHT22;61528;49.456;11.098;2022-07-09T13:01:56;22.80;93.40
18662;DHT22;61528;49.456;11.098;2022-07-09T13:04:22;22.90;93.20
18662;DHT22;61528;49.456;11.098;2022-07-09T13:06:48;23.00;93.10
18662;DHT22;61528;49.456;11.098;2022-07-09T13:09:13;23.00;92.80
18662;DHT22;61528;49.456;11.098;2022-07-09T13:11:39;22.90;93.10
18662;DHT22;61528;49.456;11.098;2022-07-09T13:14:05;22.90;93.20
18662;DHT22;61528;49.456;11.098;2022-07-09T13:16:31;23.00;93.10
18662;DHT22;61528;49.456;11.098;2022-07-09T13:18:57;23.00;92.50
18662;DHT22;61528;49.456;11.098;2022-07-09T13:21:23;23.10;92.00
18662;DHT22;61528;49.456;11.098;2022-07-09T13:23:49;23.10;91.90
18662;DHT22;61528;49.456;11.098;2022-07-09T13:26:19;23.20;91.60
18662;DHT22;61528;49.456;11.098;2022-07-09T13:28:45;23.20;91.50
18662;DHT22;61528;49.456;11.098;2022-07-09T13:31:11;23.20;91.40
18662;DHT22;61528;49.456;11.098;2022-07-09T13:33:37;23.20;91.40
18662;DHT22;61528;49.456;11.098;2022-07-09T13:36:05;23.30;91.40
18662;DHT22;61528;49.456;11.098;2022-07-09T13:38:32;23.30;91.30
18662;DHT22;61528;49.456;11.098;2022-07-09T13:40:58;23.20;91.20
18662;DHT22;61528;49.456;11.098;2022-07-09T13:43:24;23.20;91.00
18662;DHT22;61528;49.456;11.098;2022-07-09T13:45:55;23.30;90.90
18662;DHT22;61528;49.456;11.098;2022-07-09T13:48:21;23.50;90.70
18662;DHT22;61528;49.456;11.098;2022-07-09T13:50:47;23.60;90.00
18662;DHT22;61528;49.456;11.098;2022-07-09T13:53:13;23.60;89.20
18662;DHT22;61528;49.456;11.098;2022-07-09T13:55:39;23.70;87.50
18662;DHT22;61528;49.456;11.098;2022-07-09T13:58:05;23.70;87.80
18662;DHT22;61528;49.456;11.098;2022-07-09T14:00:31;23.80;86.90
18662;DHT22;61528;49.456;11.098;2022-07-09T14:02:56;23.80;86.60
18662;DHT22;61528;49.456;11.098;2022-07-09T14:05:23;23.90;86.20
18662;DHT22;61528;49.456;11.098;2022-07-09T14:07:49;23.90;86.10
18662;DHT22;61528;49.456;11.098;2022-07-09T14:10:15;23.90;85.50
18662;DHT22;61528;49.456;11.098;2022-07-09T14:12:40;24.00;85.50
18662;DHT22;61528;49.456;11.098;2022-07-09T14:15:07;24.00;85.30
18662;DHT22;61528;49.456;11.098;2022-07-09T14:17:32;23.90;85.50
18662;DHT22;61528;49.456;11.098;2022-07-09T14:19:58;23.90;85.60
18662;DHT22;61528;49.456;11.098;2022-07-09T14:22:25;23.90;85.80
18662;DHT22;61528;49.456;11.098;2022-07-09T14:24:51;23.90;85.30
18662;DHT22;61528;49.456;11.098;2022-07-09T14:27:17;23.90;85.60
18662;DHT22;61528;49.456;11.098;2022-07-09T14:29:43;24.00;85.80
18662;DHT22;61528;49.456;11.098;2022-07-09T14:32:09;23.90;85.70
18662;DHT22;61528;49.456;11.098;2022-07-09T14:34:35;23.90;85.10
18662;DHT22;61528;49.456;11.098;2022-07-09T14:37:02;23.90;84.90
18662;DHT22;61528;49.456;11.098;2022-07-09T14:39:28;23.90;84.70
18662;DHT22;61528;49.456;11.098;2022-07-09T14:41:54;24.00;84.40
18662;DHT22;61528;49.456;11.098;2022-07-09T14:44:20;24.00;84.30
18662;DHT22;61528;49.456;11.098;2022-07-09T14:46:46;24.00;83.80
18662;DHT22;61528;49.456;11.098;2022-07-09T14:49:12;23.90;83.50
18662;DHT22;61528;49.456;11.098;2022-07-09T14:51:38;23.90;84.00
18662;DHT22;61528;49.456;11.098;2022-07-09T14:54:04;23.90;83.60
18662;DHT22;61528;49.456;11.098;2022-07-09T14:56:31;23.90;83.40
18662;DHT22;61528;49.456;11.098;2022-07-09T14:58:56;23.90;83.70
18662;DHT22;61528;49.456;11.098;2022-07-09T15:01:23;23.90;84.00
18662;DHT22;61528;49.456;11.098;2022-07-09T15:03:49;23.80;84.30
18662;DHT22;61528;49.456;11.098;2022-07-09T15:06:15;23.80;84.60
18662;DHT22;61528;49.456;11.098;2022-07-09T15:08:41;23.80;84.90
18662;DHT22;61528;49.456;11.098;2022-07-09T15:11:07;23.80;84.50
18662;DHT22;61528;49.456;11.098;2022-07-09T15:13:33;23.80;84.70
18662;DHT22;61528;49.456;11.098;2022-07-09T15:15:59;23.80;86.20
18662;DHT22;61528;49.456;11.098;2022-07-09T15:18:24;23.80;84.60
18662;DHT22;61528;49.456;11.098;2022-07-09T15:20:50;23.70;84.80
18662;DHT22;61528;49.456;11.098;2022-07-09T15:23:16;23.70;85.10
18662;DHT22;61528;49.456;11.098;2022-07-09T15:25:42;23.60;85.30
18662;DHT22;61528;49.456;11.098;2022-07-09T15:28:08;23.60;86.00
18662;DHT22;61528;49.456;11.098;2022-07-09T15:30:34;23.60;86.10
18662;DHT22;61528;49.456;11.098;2022-07-09T15:33:00;23.60;85.60
18662;DHT22;61528;49.456;11.098;2022-07-09T15:35:26;23.60;85.70
18662;DHT22;61528;49.456;11.098;2022-07-09T15:37:52;23.50;85.70
18662;DHT22;61528;49.456;11.098;2022-07-09T15:40:18;23.50;85.70
18662;DHT22;61528;49.456;11.098;2022-07-09T15:42:45;23.50;85.80
18662;DHT22;61528;49.456;11.098;2022-07-09T15:45:13;23.50;86.10
18662;DHT22;61528;49.456;11.098;2022-07-09T15:47:40;23.50;86.20
18662;DHT22;61528;49.456;11.098;2022-07-09T15:50:07;23.50;85.80
18662;DHT22;61528;49.456;11.098;2022-07-09T15:52:36;23.60;86.80
18662;DHT22;61528;49.456;11.098;2022-07-09T15:55:05;23.60;86.10
18662;DHT22;61528;49.456;11.098;2022-07-09T15:57:31;23.60;86.20
18662;DHT22;61528;49.456;11.098;2022-07-09T15:59:57;23.60;85.20
18662;DHT22;61528;49.456;11.098;2022-07-09T16:02:22;23.60;84.90
18662;DHT22;61528;49.456;11.098;2022-07-09T16:04:48;23.70;85.00
18662;DHT22;61528;49.456;11.098;2022-07-09T16:07:14;23.90;84.40
18662;DHT22;61528;49.456;11.098;2022-07-09T16:12:06;24.30;83.10
18662;DHT22;61528;49.456;11.098;2022-07-09T16:14:51;24.40;83.00
18662;DHT22;61528;49.456;11.098;2022-07-09T16:17:16;24.40;83.60
18662;DHT22;61528;49.456;11.098;2022-07-09T16:19:42;24.30;84.20
18662;DHT22;61528;49.456;11.098;2022-07-09T16:22:08;24.30;84.20
18662;DHT22;61528;49.456;11.098;2022-07-09T16:24:34;24.40;84.20
18662;DHT22;61528;49.456;11.098;2022-07-09T16:27:00;24.30;84.10
18662;DHT22;61528;49.456;11.098;2022-07-09T16:29:26;24.20;84.00
18662;DHT22;61528;49.456;11.098;2022-07-09T16:31:53;24.20;84.70
18662;DHT22;61528;49.456;11.098;2022-07-09T16:34:19;24.20;84.70
18662;DHT22;61528;49.456;11.098;2022-07-09T16:36:45;24.10;84.80
18662;DHT22;61528;49.456;11.098;2022-07-09T16:39:11;24.10;85.10
18662;DHT22;61528;49.456;11.098;2022-07-09T16:41:37;23.90;85.40
18662;DHT22;61528;49.456;11.098;2022-07-09T16:44:03;23.90;85.80
18662;DHT22;61528;49.456;11.098;2022-07-09T16:46:29;23.90;85.80
18662;DHT22;61528;49.456;11.098;2022-07-09T16:48:54;23.90;85.80
18662;DHT22;61528;49.456;11.098;2022-07-09T16:51:20;23.80;85.90
18662;DHT22;61528;49.456;11.098;2022-07-09T16:53:46;23.80;85.50
18662;DHT22;61528;49.456;11.098;2022-07-09T16:56:14;23.70;85.80
18662;DHT22;61528;49.456;11.098;2022-07-09T16:58:40;23.70;85.90
18662;DHT22;61528;49.456;11.098;2022-07-09T17:01:06;23.70;85.90
18662;DHT22;61528;49.456;11.098;2022-07-09T17:03:32;23.70;85.90
18662;DHT22;61528;49.456;11.098;2022-07-09T17:05:58;23.60;86.40
18662;DHT22;61528;49.456;11.098;2022-07-09T17:08:24;23.40;86.70
18662;DHT22;61528;49.456;11.098;2022-07-09T17:10:49;23.40;87.70
18662;DHT22;61528;49.456;11.098;2022-07-09T17:13:15;23.40;87.30
18662;DHT22;61528;49.456;11.098;2022-07-09T17:15:41;23.40;87.10
18662;DHT22;61528;49.456;11.098;2022-07-09T17:18:07;23.30;88.20
18662;DHT22;61528;49.456;11.098;2022-07-09T17:20:34;23.10;86.80
18662;DHT22;61528;49.456;11.098;2022-07-09T17:23:00;23.10;87.90
18662;DHT22;61528;49.456;11.098;2022-07-09T17:25:27;23.10;87.90
18662;DHT22;61528;49.456;11.098;2022-07-09T17:27:54;23.10;88.10
18662;DHT22;61528;49.456;11.098;2022-07-09T17:30:19;23.10;87.80
18662;DHT22;61528;49.456;11.098;2022-07-09T17:32:45;23.10;88.50
18662;DHT22;61528;49.456;11.098;2022-07-09T17:35:11;23.10;87.80
18662;DHT22;61528;49.456;11.098;2022-07-09T17:37:39;23.00;87.90
18662;DHT22;61528;49.456;11.098;2022-07-09T17:40:08;22.90;87.60
18662;DHT22;61528;49.456;11.098;2022-07-09T17:42:34;22.80;87.40
18662;DHT22;61528;49.456;11.098;2022-07-09T17:45:00;22.80;87.70
18662;DHT22;61528;49.456;11.098;2022-07-09T17:47:26;22.80;87.90
18662;DHT22;61528;49.456;11.098;2022-07-09T17:49:53;22.80;87.70
18662;DHT22;61528;49.456;11.098;2022-07-09T17:52:20;22.90;87.10
18662;DHT22;61528;49.456;11.098;2022-07-09T17:54:46;22.80;87.30
18662;DHT22;61528;49.456;11.098;2022-07-09T17:57:12;22.80;87.50
18662;DHT22;61528;49.456;11.098;2022-07-09T17:59:39;22.70;87.20
18662;DHT22;61528;49.456;11.098;2022-07-09T18:02:05;22.80;87.20
18662;DHT22;61528;49.456;11.098;2022-07-09T18:04:31;22.80;87.10
18662;DHT22;61528;49.456;11.098;2022-07-09T18:06:58;22.70;87.20
18662;DHT22;61528;49.456;11.098;2022-07-09T18:09:24;22.70;87.60
18662;DHT22;61528;49.456;11.098;2022-07-09T18:11:50;22.60;87.70
18662;DHT22;61528;49.456;11.098;2022-07-09T18:14:16;22.60;87.80